createdAt,value
2019-04-27T00:01:10.593Z,2.97
2019-04-27T00:04:55.823Z,3.97
2019-04-27T00:08:39.120Z,3.47
2019-04-27T00:11:51.098Z,3.43
2019-04-27T00:14:56.087Z,3.43
2019-04-27T00:18:37.921Z,3.10
2019-04-27T00:22:03.917Z,2.80
2019-04-27T00:25:08.378Z,2.80
2019-04-27T00:28:12.936Z,3.93
2019-04-27T00:31:17.353Z,3.10
2019-04-27T00:34:21.679Z,3.10
2019-04-27T00:37:42.718Z,2.80
2019-04-27T00:41:02.934Z,2.30
2019-04-27T00:44:07.442Z,2.83
2019-04-27T00:47:11.793Z,2.30
2019-04-27T00:50:16.079Z,2.50
2019-04-27T00:53:23.442Z,2.53
2019-04-27T00:56:45.448Z,2.43
2019-04-27T01:00:13.359Z,2.10
2019-04-27T01:03:37.094Z,2.73
2019-04-27T01:06:41.638Z,1.70
2019-04-27T01:09:45.953Z,2.10
2019-04-27T01:12:50.402Z,2.23
2019-04-27T01:15:56.478Z,2.17
2019-04-27T01:19:00.792Z,2.43
2019-04-27T01:22:05.533Z,2.30
2019-04-27T01:25:10.227Z,1.90
2019-04-27T01:28:24.019Z,2.40
2019-04-27T01:31:29.405Z,2.20
2019-04-27T01:34:33.838Z,2.20
2019-04-27T01:37:38.642Z,1.83
2019-04-27T01:40:43.115Z,1.60
2019-04-27T01:43:48.987Z,2.00
2019-04-27T01:46:53.553Z,3.70
2019-04-27T01:49:58.513Z,2.20
2019-04-27T01:53:03.370Z,2.00
2019-04-27T01:56:09.216Z,1.63
2019-04-27T01:59:13.624Z,2.17
2019-04-27T02:02:52.497Z,2.50
2019-04-27T02:05:57.118Z,2.67
2019-04-27T02:09:01.467Z,3.23
2019-04-27T02:12:05.971Z,2.23
2019-04-27T02:15:10.666Z,2.37
2019-04-27T02:18:15.096Z,2.67
2019-04-27T02:21:19.483Z,2.47
2019-04-27T02:24:23.789Z,2.73
2019-04-27T02:27:29.759Z,2.83
2019-04-27T02:31:09.820Z,3.57
2019-04-27T02:34:19.972Z,2.33
2019-04-27T02:37:23.754Z,2.90
2019-04-27T02:40:55.635Z,2.87
2019-04-27T02:44:06.144Z,2.90
2019-04-27T02:47:10.859Z,3.03
2019-04-27T02:50:15.200Z,2.67
2019-04-27T02:53:29.526Z,2.67
2019-04-27T02:56:34.670Z,2.33
2019-04-27T02:59:39.882Z,2.20
2019-04-27T03:03:03.592Z,2.83
2019-04-27T03:06:09.713Z,2.50
2019-04-27T03:09:16.086Z,2.67
2019-04-27T03:12:22.217Z,2.70
2019-04-27T03:15:49.795Z,2.87
2019-04-27T03:19:17.962Z,2.90
2019-04-27T03:23:00.022Z,3.23
2019-04-27T03:26:15.036Z,3.43
2019-04-27T03:29:20.202Z,3.63
2019-04-27T03:32:25.402Z,3.27
2019-04-27T03:35:35.052Z,4.40
2019-04-27T03:38:35.918Z,2.73
2019-04-27T03:41:41.118Z,3.20
2019-04-27T03:44:45.706Z,3.60
2019-04-27T03:47:50.652Z,3.00
2019-04-27T03:51:23.046Z,4.00
2019-04-27T03:54:35.107Z,2.63
2019-04-27T03:57:44.948Z,3.83
2019-04-27T04:00:51.974Z,3.37
2019-04-27T04:03:55.918Z,3.60
2019-04-27T04:07:15.327Z,3.23
2019-04-27T04:10:23.321Z,3.17
2019-04-27T04:13:39.652Z,2.70
2019-04-27T04:16:51.791Z,3.77
2019-04-27T04:20:00.288Z,4.03
2019-04-27T04:23:03.924Z,3.10
2019-04-27T04:26:09.855Z,3.13
2019-04-27T04:29:14.315Z,3.00
2019-04-27T04:32:19.199Z,3.27
2019-04-27T04:35:24.321Z,3.23
2019-04-27T04:38:30.431Z,2.50
2019-04-27T04:41:59.957Z,3.67
2019-04-27T04:45:26.037Z,3.33
2019-04-27T04:48:30.425Z,2.90
2019-04-27T04:51:34.920Z,2.70
2019-04-27T04:54:40.901Z,3.37
2019-04-27T04:57:45.540Z,3.10
2019-04-27T05:00:50.320Z,3.50
2019-04-27T05:03:54.810Z,3.40
2019-04-27T05:06:59.345Z,3.53
2019-04-27T05:10:04.539Z,3.73
2019-04-27T05:13:09.364Z,3.37
2019-04-27T05:16:13.888Z,4.40
2019-04-27T05:19:18.871Z,3.27
2019-04-27T05:22:23.369Z,3.90
2019-04-27T05:25:28.687Z,3.70
2019-04-27T05:28:33.177Z,4.50
2019-04-27T05:31:38.836Z,3.63
2019-04-27T05:34:46.135Z,3.77
2019-04-27T05:37:50.478Z,4.47
2019-04-27T05:40:54.797Z,3.47
2019-04-27T05:44:24.585Z,3.47
2019-04-27T05:47:43.411Z,4.17
2019-04-27T05:50:51.456Z,4.40
2019-04-27T05:53:54.690Z,4.97
2019-04-27T05:56:59.276Z,5.30
2019-04-27T06:00:04.663Z,5.00
2019-04-27T06:03:09.161Z,4.43
2019-04-27T06:06:13.505Z,4.80
2019-04-27T06:09:19.538Z,5.57
2019-04-27T06:12:24.018Z,4.90
2019-04-27T06:15:29.998Z,5.23
2019-04-27T06:18:34.572Z,5.33
2019-04-27T06:21:40.116Z,4.60
2019-04-27T06:24:44.679Z,5.13
2019-04-27T06:27:49.683Z,5.30
2019-04-27T06:30:54.548Z,5.43
2019-04-27T06:33:59.731Z,6.00
2019-04-27T06:37:04.646Z,5.60
2019-04-27T06:40:12.605Z,5.20
2019-04-27T06:43:18.787Z,5.20
2019-04-27T06:46:23.012Z,4.97
2019-04-27T06:49:27.314Z,4.87
2019-04-27T06:52:31.725Z,4.80
2019-04-27T06:55:36.523Z,5.53
2019-04-27T06:58:41.252Z,4.83
2019-04-27T07:01:45.984Z,5.20
2019-04-27T07:04:50.294Z,5.10
2019-04-27T07:07:54.674Z,4.70
2019-04-27T07:10:59.161Z,4.70
2019-04-27T07:14:03.579Z,5.73
2019-04-27T07:17:08.949Z,5.00
2019-04-27T07:20:13.498Z,5.30
2019-04-27T07:23:18.701Z,5.60
2019-04-27T07:26:23.889Z,5.27
2019-04-27T07:29:29.284Z,5.33
2019-04-27T07:32:33.744Z,5.73
2019-04-27T07:35:39.305Z,6.23
2019-04-27T07:38:45.332Z,6.20
2019-04-27T07:41:49.558Z,5.83
2019-04-27T07:44:59.913Z,6.33
2019-04-27T07:48:04.449Z,6.40
2019-04-27T07:51:09.066Z,6.97
2019-04-27T07:54:13.472Z,6.50
2019-04-27T07:57:19.452Z,6.13
2019-04-27T08:00:24.008Z,6.73
2019-04-27T08:03:29.115Z,7.07
2019-04-27T08:06:33.555Z,6.30
2019-04-27T08:09:39.616Z,5.23
2019-04-27T08:12:43.894Z,5.00
2019-04-27T08:15:49.624Z,5.90
2019-04-27T08:18:54.153Z,5.77
2019-04-27T08:21:59.637Z,5.20
2019-04-27T08:25:04.735Z,6.00
2019-04-27T08:28:38.660Z,5.30
2019-04-27T08:31:51.695Z,5.33
2019-04-27T08:34:59.471Z,5.30
2019-04-27T08:38:03.975Z,5.30
2019-04-27T08:41:08.980Z,6.93
2019-04-27T08:44:13.533Z,5.67
2019-04-27T08:47:19.419Z,6.07
2019-04-27T08:50:23.964Z,6.93
2019-04-27T08:53:29.821Z,6.03
2019-04-27T08:56:34.411Z,6.10
2019-04-27T08:59:39.288Z,6.60
2019-04-27T09:02:47.067Z,6.50
2019-04-27T09:05:49.893Z,6.63
2019-04-27T09:09:09.565Z,6.17
2019-04-27T09:12:53.490Z,6.80
2019-04-27T09:16:23.724Z,5.97
2019-04-27T09:19:46.958Z,6.30
2019-04-27T09:22:51.286Z,5.97
2019-04-27T09:25:55.729Z,5.80
2019-04-27T09:29:00.040Z,6.33
2019-04-27T09:32:23.456Z,5.83
2019-04-27T09:35:30.460Z,5.90
2019-04-27T09:38:35.785Z,6.50
2019-04-27T09:41:40.197Z,6.13
2019-04-27T09:44:45.690Z,6.60
2019-04-27T09:47:50.643Z,7.03
2019-04-27T09:50:57.781Z,7.13
2019-04-27T09:54:02.194Z,7.97
2019-04-27T09:57:07.098Z,6.97
2019-04-27T10:00:13.850Z,7.00
2019-04-27T10:03:18.206Z,6.93
2019-04-27T10:06:22.574Z,6.40
2019-04-27T10:09:29.571Z,6.13
2019-04-27T10:12:34.456Z,6.70
2019-04-27T10:15:39.047Z,7.17
2019-04-27T10:18:43.416Z,7.20
2019-04-27T10:21:47.777Z,7.10
2019-04-27T10:24:52.330Z,7.57
2019-04-27T10:27:59.740Z,7.37
2019-04-27T10:31:04.392Z,8.27
2019-04-27T10:34:08.784Z,7.83
2019-04-27T10:37:13.118Z,8.70
2019-04-27T10:40:17.492Z,6.53
2019-04-27T10:43:21.844Z,6.53
2019-04-27T10:46:26.161Z,6.80
2019-04-27T10:49:33.523Z,6.20
2019-04-27T10:52:37.943Z,6.47
2019-04-27T10:55:42.300Z,6.53
2019-04-27T10:58:46.627Z,6.47
2019-04-27T11:01:51.161Z,5.20
2019-04-27T11:05:01.393Z,5.87
2019-04-27T11:08:10.593Z,6.90
2019-04-27T11:11:15.021Z,5.73
2019-04-27T11:14:19.509Z,5.60
2019-04-27T11:17:23.873Z,5.90
2019-04-27T11:20:28.203Z,5.53
2019-04-27T11:23:32.761Z,5.63
2019-04-27T11:26:37.114Z,5.50
2019-04-27T11:29:42.642Z,6.13
2019-04-27T11:32:48.058Z,4.83
2019-04-27T11:35:58.407Z,5.53
2019-04-27T11:39:03.245Z,4.63
2019-04-27T11:42:07.634Z,4.70
2019-04-27T11:45:13.824Z,4.57
2019-04-27T11:48:18.120Z,4.77
2019-04-27T11:51:22.487Z,5.20
2019-04-27T11:54:27.694Z,4.33
2019-04-27T11:57:32.042Z,4.43
2019-04-27T12:00:37.047Z,4.37
2019-04-27T12:03:41.359Z,4.47
2019-04-27T12:06:46.264Z,4.23
2019-04-27T12:09:53.207Z,4.10
2019-04-27T12:12:57.617Z,3.80
2019-04-27T12:16:01.995Z,3.23
2019-04-27T12:19:08.574Z,4.47
2019-04-27T12:22:12.880Z,2.80
2019-04-27T12:25:17.422Z,3.20
2019-04-27T12:28:37.825Z,3.40
2019-04-27T12:31:46.435Z,3.07
2019-04-27T12:34:49.858Z,3.03
2019-04-27T12:37:55.826Z,2.77
2019-04-27T12:41:00.488Z,2.47
2019-04-27T12:44:11.070Z,2.93
2019-04-27T12:47:16.378Z,2.40
2019-04-27T12:50:22.551Z,2.37
2019-04-27T12:53:32.469Z,2.13
2019-04-27T12:56:58.560Z,2.47
2019-04-27T13:00:23.810Z,2.00
2019-04-27T13:03:28.179Z,1.67
2019-04-27T13:06:35.683Z,3.07
2019-04-27T13:09:42.759Z,2.07
2019-04-27T13:12:47.132Z,1.90
2019-04-27T13:15:51.475Z,2.50
2019-04-27T13:18:57.463Z,1.40
2019-04-27T13:22:02.096Z,1.60
2019-04-27T13:25:09.355Z,0.97
2019-04-27T13:28:15.066Z,1.20
2019-04-27T13:31:25.679Z,1.33
2019-04-27T13:34:30.173Z,1.00
2019-04-27T13:37:42.011Z,1.00
2019-04-27T13:41:05.883Z,1.00
2019-04-27T13:44:29.443Z,1.50
2019-04-27T13:48:06.090Z,1.63
2019-04-27T13:51:13.489Z,1.00
2019-04-27T13:54:25.443Z,1.10
2019-04-27T13:57:24.000Z,0.63
2019-04-27T14:00:28.551Z,0.83
2019-04-27T14:03:33.681Z,1.80
2019-04-27T14:06:38.158Z,1.37
2019-04-27T14:09:42.524Z,1.67
2019-04-27T14:12:48.733Z,4.13
2019-04-27T14:15:52.898Z,3.23
2019-04-27T14:18:57.275Z,3.17
2019-04-27T14:22:01.638Z,1.83
2019-04-27T14:25:08.617Z,1.53
2019-04-27T14:28:13.069Z,2.17
2019-04-27T14:31:18.960Z,1.93
2019-04-27T14:34:30.918Z,1.30
2019-04-27T14:37:35.233Z,1.77
2019-04-27T14:40:39.641Z,1.27
2019-04-27T14:43:44.053Z,1.47
2019-04-27T14:46:48.651Z,1.30
2019-04-27T14:49:52.949Z,1.90
2019-04-27T14:53:00.282Z,2.30
2019-04-27T14:56:04.654Z,2.77
2019-04-27T14:59:09.014Z,2.00
2019-04-27T15:02:14.869Z,2.17
2019-04-27T15:05:19.208Z,2.80
2019-04-27T15:08:25.152Z,2.27
2019-04-27T15:11:31.601Z,1.50
2019-04-27T15:14:35.622Z,1.20
2019-04-27T15:17:40.251Z,1.53
2019-04-27T15:20:46.544Z,0.60
2019-04-27T15:23:51.125Z,0.67
2019-04-27T15:27:00.728Z,1.90
2019-04-27T15:30:06.074Z,4.80
2019-04-27T15:33:29.454Z,12.70
2019-04-27T15:36:58.809Z,7.97
2019-04-27T15:40:18.579Z,3.53
2019-04-27T15:43:27.339Z,2.90
2019-04-27T15:46:33.889Z,2.13
2019-04-27T15:49:45.052Z,1.20
2019-04-27T15:52:45.257Z,1.53
2019-04-27T15:55:53.631Z,1.10
2019-04-27T15:58:59.963Z,1.53
2019-04-27T16:02:05.503Z,1.17
2019-04-27T16:05:11.670Z,0.90
2019-04-27T16:08:18.641Z,1.20
2019-04-27T16:11:22.458Z,2.33
2019-04-27T16:14:28.832Z,1.83
2019-04-27T16:17:33.325Z,2.53
2019-04-27T16:20:38.086Z,3.33
2019-04-27T16:23:43.357Z,8.93
2019-04-27T16:26:52.208Z,29.03
2019-04-27T16:29:54.505Z,16.83
2019-04-27T16:32:59.184Z,9.27
2019-04-27T16:36:06.938Z,6.23
2019-04-27T16:39:11.018Z,4.53
2019-04-27T16:42:18.784Z,3.43
2019-04-27T16:45:27.147Z,2.77
2019-04-27T16:48:48.722Z,2.90
2019-04-27T16:51:53.078Z,1.50
2019-04-27T16:55:00.260Z,1.13
2019-04-27T16:58:15.773Z,0.80
2019-04-27T17:01:28.463Z,1.37
2019-04-27T17:04:34.100Z,0.50
2019-04-27T17:07:41.763Z,0.50
2019-04-27T17:10:45.012Z,0.43
2019-04-27T17:13:54.650Z,0.87
2019-04-27T17:17:21.094Z,0.50
2019-04-27T17:20:25.501Z,0.40
2019-04-27T17:23:31.594Z,0.40
2019-04-27T17:26:42.338Z,0.40
2019-04-27T17:29:43.350Z,0.37
2019-04-27T17:33:15.606Z,0.40
2019-04-27T17:36:20.015Z,0.37
2019-04-27T17:39:24.849Z,2.53
2019-04-27T17:42:30.605Z,1.10
2019-04-27T17:45:36.311Z,1.60
2019-04-27T17:48:41.594Z,1.40
2019-04-27T17:51:46.069Z,1.50
2019-04-27T17:54:50.404Z,1.10
2019-04-27T17:57:58.945Z,0.63
2019-04-27T18:01:00.808Z,1.03
2019-04-27T18:04:08.462Z,0.87
2019-04-27T18:07:11.406Z,0.50
2019-04-27T18:10:21.127Z,0.70
2019-04-27T18:13:25.525Z,0.60
2019-04-27T18:16:34.023Z,0.80
2019-04-27T18:19:48.236Z,2.10
2019-04-27T18:22:58.044Z,1.90
2019-04-27T18:26:17.578Z,2.00
2019-04-27T18:29:22.926Z,1.80
2019-04-27T18:32:27.640Z,2.10
2019-04-27T18:35:32.476Z,1.67
2019-04-27T18:38:37.426Z,0.97
2019-04-27T18:41:49.024Z,1.10
2019-04-27T18:44:48.940Z,1.23
2019-04-27T18:48:00.848Z,1.40
2019-04-27T18:51:25.178Z,1.67
2019-04-27T18:54:28.446Z,0.80
2019-04-27T18:57:33.093Z,0.80
2019-04-27T19:00:38.168Z,0.70
2019-04-27T19:03:42.683Z,1.17
2019-04-27T19:06:47.050Z,0.57
2019-04-27T19:09:51.396Z,1.80
2019-04-27T19:12:55.768Z,3.07
2019-04-27T19:16:00.766Z,1.50
2019-04-27T19:19:05.223Z,1.03
2019-04-27T19:22:10.032Z,1.20
2019-04-27T19:25:21.250Z,1.60
2019-04-27T19:28:43.307Z,2.70
2019-04-27T19:31:52.473Z,2.63
2019-04-27T19:34:56.844Z,2.40
2019-04-27T19:38:20.235Z,1.57
2019-04-27T19:41:24.898Z,1.53
2019-04-27T19:44:29.418Z,1.80
2019-04-27T19:47:36.128Z,1.50
2019-04-27T19:50:40.459Z,1.20
2019-04-27T19:53:45.907Z,1.27
2019-04-27T19:56:51.415Z,0.80
2019-04-27T19:59:58.956Z,0.87
2019-04-27T20:03:04.614Z,0.60
2019-04-27T20:06:08.947Z,0.73
2019-04-27T20:09:22.288Z,0.70
2019-04-27T20:12:28.379Z,0.73
2019-04-27T20:15:32.931Z,0.83
2019-04-27T20:18:37.244Z,0.70
2019-04-27T20:21:41.977Z,0.70
2019-04-27T20:24:46.350Z,0.77
2019-04-27T20:27:51.975Z,0.80
2019-04-27T20:30:56.845Z,0.80
2019-04-27T20:34:01.253Z,0.63
2019-04-27T20:37:05.711Z,0.50
2019-04-27T20:40:11.640Z,0.50
2019-04-27T20:43:16.118Z,0.70
2019-04-27T20:46:22.385Z,0.80
2019-04-27T20:49:45.602Z,0.50
2019-04-27T20:52:55.067Z,0.47
2019-04-27T20:55:59.431Z,0.73
2019-04-27T20:59:03.766Z,0.27
2019-04-27T21:02:25.711Z,0.33
2019-04-27T21:05:41.163Z,0.30
2019-04-27T21:08:45.524Z,0.40
2019-04-27T21:11:49.874Z,0.50
2019-04-27T21:14:54.248Z,0.20
2019-04-27T21:17:58.640Z,0.30
2019-04-27T21:21:02.878Z,0.50
2019-04-27T21:24:07.250Z,0.30
2019-04-27T21:27:13.039Z,0.57
2019-04-27T21:30:17.512Z,0.30
2019-04-27T21:33:21.836Z,0.40
2019-04-27T21:36:26.208Z,0.30
2019-04-27T21:39:31.898Z,0.70
2019-04-27T21:42:36.427Z,0.77
2019-04-27T21:45:42.010Z,0.30
2019-04-27T21:48:46.691Z,0.30
2019-04-27T21:52:08.232Z,0.20
2019-04-27T21:55:13.697Z,0.20
2019-04-27T21:58:28.405Z,0.40
2019-04-27T22:01:28.841Z,0.30
2019-04-27T22:04:33.214Z,0.37
2019-04-27T22:07:37.637Z,0.27
2019-04-27T22:10:42.128Z,0.30
2019-04-27T22:13:46.453Z,0.30
2019-04-27T22:16:51.908Z,0.20
2019-04-27T22:19:57.413Z,0.40
2019-04-27T22:23:03.884Z,0.30
2019-04-27T22:26:08.198Z,0.30
2019-04-27T22:29:12.536Z,0.30
2019-04-27T22:32:16.920Z,0.63
2019-04-27T22:35:27.058Z,0.73
2019-04-27T22:38:32.703Z,0.30
2019-04-27T22:41:59.145Z,0.30
2019-04-27T22:45:28.833Z,0.37
2019-04-27T22:48:33.296Z,0.40
2019-04-27T22:51:37.623Z,0.40
2019-04-27T22:54:42.183Z,0.30
2019-04-27T22:57:55.169Z,0.40
2019-04-27T23:01:10.223Z,0.40
2019-04-27T23:04:17.244Z,0.40
2019-04-27T23:07:21.615Z,0.40
2019-04-27T23:10:25.992Z,0.33
2019-04-27T23:13:30.333Z,0.40
2019-04-27T23:16:36.494Z,0.43
2019-04-27T23:19:40.875Z,0.53
2019-04-27T23:22:46.844Z,0.50
2019-04-27T23:25:51.374Z,0.60
2019-04-27T23:28:56.694Z,0.60
2019-04-27T23:32:16.339Z,0.70
2019-04-27T23:35:20.695Z,0.63
2019-04-27T23:38:25.061Z,1.23
2019-04-27T23:41:29.599Z,1.03
2019-04-27T23:44:33.956Z,1.03
2019-04-27T23:47:38.417Z,0.60
2019-04-27T23:50:44.689Z,0.60
2019-04-27T23:53:49.007Z,1.73
2019-04-27T23:56:53.321Z,0.83
2019-04-27T23:59:57.646Z,1.00
